sensor_id;sensor_type;location;lat;lon;timestamp;P1;durP1;ratioP1;P2;durP2;ratioP2
38567;SDS011;24338;48.280;10.970;2023-04-03T00:01:16;9.25;;;5.97;;
38567;SDS011;24338;48.280;10.970;2023-04-03T00:03:44;8.73;;;5.90;;
38567;SDS011;24338;48.280;10.970;2023-04-03T00:06:11;8.30;;;6.30;;
38567;SDS011;24338;48.280;10.970;2023-04-03T00:08:39;7.88;;;5.80;;
38567;SDS011;24338;48.280;10.970;2023-04-03T00:11:07;8.80;;;5.10;;
38567;SDS011;24338;48.280;10.970;2023-04-03T00:13:34;10.57;;;6.75;;
38567;SDS011;24338;48.280;10.970;2023-04-03T00:16:01;7.88;;;6.65;;
38567;SDS011;24338;48.280;10.970;2023-04-03T00:18:29;8.15;;;6.00;;
38567;SDS011;24338;48.280;10.970;2023-04-03T00:20:56;8.07;;;6.45;;
38567;SDS011;24338;48.280;10.970;2023-04-03T00:23:23;8.32;;;5.93;;
38567;SDS011;24338;48.280;10.970;2023-04-03T00:25:50;10.88;;;5.82;;
38567;SDS011;24338;48.280;10.970;2023-04-03T00:28:18;9.85;;;5.50;;
38567;SDS011;24338;48.280;10.970;2023-04-03T00:30:45;7.68;;;6.03;;
38567;SDS011;24338;48.280;10.970;2023-04-03T00:33:12;8.60;;;5.72;;
38567;SDS011;24338;48.280;10.970;2023-04-03T00:35:40;7.35;;;5.70;;
38567;SDS011;24338;48.280;10.970;2023-04-03T00:38:07;6.65;;;4.70;;
38567;SDS011;24338;48.280;10.970;2023-04-03T00:40:35;7.45;;;4.97;;
38567;SDS011;24338;48.280;10.970;2023-04-03T00:43:17;8.63;;;6.15;;
38567;SDS011;24338;48.280;10.970;2023-04-03T00:45:47;8.10;;;5.15;;
38567;SDS011;24338;48.280;10.970;2023-04-03T00:50:52;6.22;;;4.78;;
38567;SDS011;24338;48.280;10.970;2023-04-03T00:53:22;9.48;;;5.35;;
38567;SDS011;24338;48.280;10.970;2023-04-03T00:55:52;7.78;;;5.18;;
38567;SDS011;24338;48.280;10.970;2023-04-03T00:58:23;8.13;;;5.10;;
38567;SDS011;24338;48.280;10.970;2023-04-03T01:00:59;9.43;;;5.25;;
38567;SDS011;24338;48.280;10.970;2023-04-03T01:03:32;8.02;;;5.35;;
38567;SDS011;24338;48.280;10.970;2023-04-03T01:05:59;6.72;;;5.07;;
38567;SDS011;24338;48.280;10.970;2023-04-03T01:08:27;7.05;;;5.60;;
38567;SDS011;24338;48.280;10.970;2023-04-03T01:10:54;8.30;;;5.20;;
38567;SDS011;24338;48.280;10.970;2023-04-03T01:13:22;7.63;;;5.63;;
38567;SDS011;24338;48.280;10.970;2023-04-03T01:16:00;8.15;;;5.30;;
38567;SDS011;24338;48.280;10.970;2023-04-03T01:18:32;8.63;;;5.55;;
38567;SDS011;24338;48.280;10.970;2023-04-03T01:24:12;5.93;;;4.57;;
38567;SDS011;24338;48.280;10.970;2023-04-03T01:26:43;6.03;;;4.50;;
38567;SDS011;24338;48.280;10.970;2023-04-03T01:32:59;7.57;;;4.85;;
38567;SDS011;24338;48.280;10.970;2023-04-03T01:35:25;5.93;;;4.40;;
38567;SDS011;24338;48.280;10.970;2023-04-03T01:37:52;7.72;;;4.03;;
38567;SDS011;24338;48.280;10.970;2023-04-03T01:40:19;7.03;;;4.18;;
38567;SDS011;24338;48.280;10.970;2023-04-03T01:42:46;6.15;;;3.97;;
38567;SDS011;24338;48.280;10.970;2023-04-03T01:45:13;7.50;;;4.72;;
38567;SDS011;24338;48.280;10.970;2023-04-03T01:47:40;6.03;;;3.80;;
38567;SDS011;24338;48.280;10.970;2023-04-03T01:50:07;6.88;;;4.85;;
38567;SDS011;24338;48.280;10.970;2023-04-03T01:52:34;6.55;;;3.72;;
38567;SDS011;24338;48.280;10.970;2023-04-03T01:55:01;7.03;;;4.15;;
38567;SDS011;24338;48.280;10.970;2023-04-03T01:57:28;5.15;;;4.07;;
38567;SDS011;24338;48.280;10.970;2023-04-03T01:59:55;7.25;;;3.63;;
38567;SDS011;24338;48.280;10.970;2023-04-03T02:02:22;6.43;;;3.80;;
38567;SDS011;24338;48.280;10.970;2023-04-03T02:04:49;5.35;;;3.22;;
38567;SDS011;24338;48.280;10.970;2023-04-03T02:07:16;5.30;;;3.05;;
38567;SDS011;24338;48.280;10.970;2023-04-03T02:09:43;6.60;;;2.83;;
38567;SDS011;24338;48.280;10.970;2023-04-03T02:12:10;4.82;;;2.42;;
38567;SDS011;24338;48.280;10.970;2023-04-03T02:14:36;5.15;;;2.83;;
38567;SDS011;24338;48.280;10.970;2023-04-03T02:17:03;5.75;;;3.22;;
38567;SDS011;24338;48.280;10.970;2023-04-03T02:19:35;5.15;;;3.20;;
38567;SDS011;24338;48.280;10.970;2023-04-03T02:22:02;5.13;;;2.95;;
38567;SDS011;24338;48.280;10.970;2023-04-03T02:24:30;4.65;;;2.67;;
38567;SDS011;24338;48.280;10.970;2023-04-03T02:26:57;7.20;;;3.97;;
38567;SDS011;24338;48.280;10.970;2023-04-03T02:29:24;6.45;;;3.67;;
38567;SDS011;24338;48.280;10.970;2023-04-03T02:31:51;5.97;;;2.90;;
38567;SDS011;24338;48.280;10.970;2023-04-03T02:34:18;7.20;;;2.67;;
38567;SDS011;24338;48.280;10.970;2023-04-03T02:36:45;5.35;;;3.08;;
38567;SDS011;24338;48.280;10.970;2023-04-03T02:39:12;4.47;;;2.53;;
38567;SDS011;24338;48.280;10.970;2023-04-03T02:41:38;5.15;;;2.67;;
38567;SDS011;24338;48.280;10.970;2023-04-03T02:44:06;4.93;;;2.33;;
38567;SDS011;24338;48.280;10.970;2023-04-03T02:46:35;4.32;;;2.63;;
38567;SDS011;24338;48.280;10.970;2023-04-03T02:49:02;7.40;;;3.97;;
38567;SDS011;24338;48.280;10.970;2023-04-03T02:51:29;4.72;;;2.70;;
38567;SDS011;24338;48.280;10.970;2023-04-03T02:53:56;4.60;;;2.75;;
38567;SDS011;24338;48.280;10.970;2023-04-03T02:56:23;3.85;;;2.03;;
38567;SDS011;24338;48.280;10.970;2023-04-03T02:58:50;4.38;;;2.25;;
38567;SDS011;24338;48.280;10.970;2023-04-03T03:01:17;4.97;;;2.58;;
38567;SDS011;24338;48.280;10.970;2023-04-03T03:03:43;3.47;;;2.00;;
38567;SDS011;24338;48.280;10.970;2023-04-03T03:06:12;4.82;;;2.60;;
38567;SDS011;24338;48.280;10.970;2023-04-03T03:08:41;4.88;;;2.42;;
38567;SDS011;24338;48.280;10.970;2023-04-03T03:11:08;4.05;;;2.65;;
38567;SDS011;24338;48.280;10.970;2023-04-03T03:13:36;4.55;;;2.63;;
38567;SDS011;24338;48.280;10.970;2023-04-03T03:16:03;3.60;;;1.83;;
38567;SDS011;24338;48.280;10.970;2023-04-03T03:18:30;5.38;;;2.47;;
38567;SDS011;24338;48.280;10.970;2023-04-03T03:20:58;4.40;;;2.30;;
38567;SDS011;24338;48.280;10.970;2023-04-03T03:23:27;5.10;;;2.40;;
38567;SDS011;24338;48.280;10.970;2023-04-03T03:25:59;5.00;;;2.30;;
38567;SDS011;24338;48.280;10.970;2023-04-03T03:28:28;5.05;;;2.10;;
38567;SDS011;24338;48.280;10.970;2023-04-03T03:30:55;4.28;;;2.20;;
38567;SDS011;24338;48.280;10.970;2023-04-03T03:33:22;4.13;;;2.58;;
38567;SDS011;24338;48.280;10.970;2023-04-03T03:35:49;5.00;;;2.58;;
38567;SDS011;24338;48.280;10.970;2023-04-03T03:38:16;4.43;;;2.70;;
38567;SDS011;24338;48.280;10.970;2023-04-03T03:40:43;4.95;;;2.70;;
38567;SDS011;24338;48.280;10.970;2023-04-03T03:43:11;8.30;;;2.75;;
38567;SDS011;24338;48.280;10.970;2023-04-03T03:45:37;3.50;;;2.15;;
38567;SDS011;24338;48.280;10.970;2023-04-03T03:48:05;4.22;;;2.15;;
38567;SDS011;24338;48.280;10.970;2023-04-03T03:50:31;5.55;;;2.33;;
38567;SDS011;24338;48.280;10.970;2023-04-03T03:52:58;4.75;;;2.65;;
38567;SDS011;24338;48.280;10.970;2023-04-03T03:55:25;5.22;;;2.55;;
38567;SDS011;24338;48.280;10.970;2023-04-03T03:57:52;5.97;;;2.88;;
38567;SDS011;24338;48.280;10.970;2023-04-03T04:00:19;5.15;;;2.30;;
38567;SDS011;24338;48.280;10.970;2023-04-03T04:02:47;4.70;;;2.60;;
38567;SDS011;24338;48.280;10.970;2023-04-03T04:05:14;4.88;;;2.88;;
38567;SDS011;24338;48.280;10.970;2023-04-03T04:07:41;6.07;;;2.90;;
38567;SDS011;24338;48.280;10.970;2023-04-03T04:10:08;5.43;;;2.70;;
38567;SDS011;24338;48.280;10.970;2023-04-03T04:12:35;5.75;;;3.03;;
38567;SDS011;24338;48.280;10.970;2023-04-03T04:15:02;5.80;;;3.30;;
38567;SDS011;24338;48.280;10.970;2023-04-03T04:17:29;4.28;;;2.22;;
38567;SDS011;24338;48.280;10.970;2023-04-03T04:19:56;6.60;;;3.67;;
38567;SDS011;24338;48.280;10.970;2023-04-03T04:22:23;4.93;;;3.00;;
38567;SDS011;24338;48.280;10.970;2023-04-03T04:24:50;4.80;;;2.92;;
38567;SDS011;24338;48.280;10.970;2023-04-03T04:27:17;5.38;;;3.08;;
38567;SDS011;24338;48.280;10.970;2023-04-03T04:29:44;4.72;;;2.53;;
38567;SDS011;24338;48.280;10.970;2023-04-03T04:32:11;11.85;;;3.10;;
38567;SDS011;24338;48.280;10.970;2023-04-03T04:34:37;6.00;;;2.72;;
38567;SDS011;24338;48.280;10.970;2023-04-03T04:37:04;4.75;;;2.50;;
38567;SDS011;24338;48.280;10.970;2023-04-03T04:39:31;4.93;;;3.00;;
38567;SDS011;24338;48.280;10.970;2023-04-03T04:41:58;5.10;;;3.08;;
38567;SDS011;24338;48.280;10.970;2023-04-03T04:44:25;3.75;;;2.17;;
38567;SDS011;24338;48.280;10.970;2023-04-03T04:46:52;6.60;;;3.53;;
38567;SDS011;24338;48.280;10.970;2023-04-03T04:49:19;6.55;;;3.22;;
38567;SDS011;24338;48.280;10.970;2023-04-03T04:51:46;5.40;;;3.58;;
38567;SDS011;24338;48.280;10.970;2023-04-03T04:54:17;4.87;;;2.90;;
38567;SDS011;24338;48.280;10.970;2023-04-03T04:56:44;5.45;;;3.38;;
38567;SDS011;24338;48.280;10.970;2023-04-03T04:59:11;5.63;;;3.60;;
38567;SDS011;24338;48.280;10.970;2023-04-03T05:01:38;6.68;;;3.60;;
38567;SDS011;24338;48.280;10.970;2023-04-03T05:04:05;4.93;;;2.58;;
38567;SDS011;24338;48.280;10.970;2023-04-03T05:06:32;5.50;;;3.40;;
38567;SDS011;24338;48.280;10.970;2023-04-03T05:09:01;7.55;;;3.28;;
38567;SDS011;24338;48.280;10.970;2023-04-03T05:11:28;5.93;;;3.20;;
38567;SDS011;24338;48.280;10.970;2023-04-03T05:13:54;6.63;;;3.38;;
38567;SDS011;24338;48.280;10.970;2023-04-03T05:16:21;7.18;;;3.13;;
38567;SDS011;24338;48.280;10.970;2023-04-03T05:18:48;4.88;;;3.38;;
38567;SDS011;24338;48.280;10.970;2023-04-03T05:21:15;6.90;;;3.38;;
38567;SDS011;24338;48.280;10.970;2023-04-03T05:23:44;6.53;;;3.60;;
38567;SDS011;24338;48.280;10.970;2023-04-03T05:26:11;4.93;;;3.25;;
38567;SDS011;24338;48.280;10.970;2023-04-03T05:28:38;5.53;;;3.10;;
38567;SDS011;24338;48.280;10.970;2023-04-03T05:31:05;7.05;;;3.22;;
38567;SDS011;24338;48.280;10.970;2023-04-03T05:33:32;6.32;;;3.25;;
38567;SDS011;24338;48.280;10.970;2023-04-03T05:36:01;7.25;;;3.03;;
38567;SDS011;24338;48.280;10.970;2023-04-03T05:38:31;7.60;;;3.58;;
38567;SDS011;24338;48.280;10.970;2023-04-03T05:40:58;6.18;;;3.38;;
38567;SDS011;24338;48.280;10.970;2023-04-03T05:43:25;5.60;;;3.45;;
38567;SDS011;24338;48.280;10.970;2023-04-03T05:45:52;6.00;;;4.38;;
38567;SDS011;24338;48.280;10.970;2023-04-03T05:48:19;7.45;;;3.53;;
38567;SDS011;24338;48.280;10.970;2023-04-03T05:50:46;5.63;;;3.13;;
38567;SDS011;24338;48.280;10.970;2023-04-03T05:53:21;7.03;;;3.60;;
38567;SDS011;24338;48.280;10.970;2023-04-03T05:55:51;5.97;;;4.07;;
38567;SDS011;24338;48.280;10.970;2023-04-03T05:58:18;7.38;;;3.78;;
38567;SDS011;24338;48.280;10.970;2023-04-03T06:00:45;5.38;;;3.25;;
38567;SDS011;24338;48.280;10.970;2023-04-03T06:03:12;4.88;;;3.17;;
38567;SDS011;24338;48.280;10.970;2023-04-03T06:05:39;5.63;;;3.22;;
38567;SDS011;24338;48.280;10.970;2023-04-03T06:08:06;8.52;;;4.10;;
38567;SDS011;24338;48.280;10.970;2023-04-03T06:10:33;9.25;;;4.88;;
38567;SDS011;24338;48.280;10.970;2023-04-03T06:13:00;6.32;;;3.47;;
38567;SDS011;24338;48.280;10.970;2023-04-03T06:15:27;5.35;;;3.67;;
38567;SDS011;24338;48.280;10.970;2023-04-03T06:17:54;5.20;;;3.75;;
38567;SDS011;24338;48.280;10.970;2023-04-03T06:20:21;6.30;;;3.80;;
38567;SDS011;24338;48.280;10.970;2023-04-03T06:22:48;6.63;;;3.60;;
38567;SDS011;24338;48.280;10.970;2023-04-03T06:25:15;6.63;;;3.70;;
38567;SDS011;24338;48.280;10.970;2023-04-03T06:27:43;6.05;;;3.58;;
38567;SDS011;24338;48.280;10.970;2023-04-03T06:30:11;8.07;;;3.85;;
38567;SDS011;24338;48.280;10.970;2023-04-03T06:32:38;7.55;;;4.20;;
38567;SDS011;24338;48.280;10.970;2023-04-03T06:35:05;8.00;;;3.88;;
38567;SDS011;24338;48.280;10.970;2023-04-03T06:37:33;6.30;;;4.05;;
38567;SDS011;24338;48.280;10.970;2023-04-03T06:40:00;7.45;;;4.85;;
38567;SDS011;24338;48.280;10.970;2023-04-03T06:42:27;7.22;;;4.10;;
38567;SDS011;24338;48.280;10.970;2023-04-03T06:44:54;6.53;;;4.05;;
38567;SDS011;24338;48.280;10.970;2023-04-03T06:47:21;7.75;;;4.53;;
38567;SDS011;24338;48.280;10.970;2023-04-03T06:49:48;6.32;;;4.50;;
38567;SDS011;24338;48.280;10.970;2023-04-03T06:52:15;6.25;;;4.18;;
38567;SDS011;24338;48.280;10.970;2023-04-03T06:54:42;5.57;;;3.67;;
38567;SDS011;24338;48.280;10.970;2023-04-03T06:57:08;6.47;;;4.55;;
38567;SDS011;24338;48.280;10.970;2023-04-03T06:59:35;7.80;;;4.15;;
38567;SDS011;24338;48.280;10.970;2023-04-03T07:02:03;6.53;;;4.38;;
38567;SDS011;24338;48.280;10.970;2023-04-03T07:04:30;7.97;;;4.72;;
38567;SDS011;24338;48.280;10.970;2023-04-03T07:06:56;9.35;;;4.45;;
38567;SDS011;24338;48.280;10.970;2023-04-03T07:09:23;7.63;;;4.75;;
38567;SDS011;24338;48.280;10.970;2023-04-03T07:11:50;7.45;;;4.20;;
38567;SDS011;24338;48.280;10.970;2023-04-03T07:14:17;6.60;;;4.80;;
38567;SDS011;24338;48.280;10.970;2023-04-03T07:16:44;6.55;;;4.53;;
38567;SDS011;24338;48.280;10.970;2023-04-03T07:19:11;6.80;;;4.18;;
38567;SDS011;24338;48.280;10.970;2023-04-03T07:21:38;7.05;;;4.50;;
38567;SDS011;24338;48.280;10.970;2023-04-03T07:24:05;7.05;;;4.03;;
38567;SDS011;24338;48.280;10.970;2023-04-03T07:26:35;6.93;;;4.15;;
38567;SDS011;24338;48.280;10.970;2023-04-03T07:29:02;7.15;;;4.32;;
38567;SDS011;24338;48.280;10.970;2023-04-03T07:31:29;7.97;;;4.10;;
38567;SDS011;24338;48.280;10.970;2023-04-03T07:33:56;7.80;;;3.85;;
38567;SDS011;24338;48.280;10.970;2023-04-03T07:36:23;6.40;;;4.00;;
38567;SDS011;24338;48.280;10.970;2023-04-03T07:38:50;9.25;;;4.90;;
38567;SDS011;24338;48.280;10.970;2023-04-03T07:41:17;7.57;;;4.15;;
38567;SDS011;24338;48.280;10.970;2023-04-03T07:43:46;8.68;;;4.32;;
38567;SDS011;24338;48.280;10.970;2023-04-03T07:46:13;9.65;;;4.28;;
38567;SDS011;24338;48.280;10.970;2023-04-03T07:48:40;7.95;;;4.10;;
38567;SDS011;24338;48.280;10.970;2023-04-03T07:51:07;6.45;;;3.90;;
38567;SDS011;24338;48.280;10.970;2023-04-03T07:53:34;8.30;;;4.10;;
38567;SDS011;24338;48.280;10.970;2023-04-03T07:56:01;6.68;;;3.80;;
38567;SDS011;24338;48.280;10.970;2023-04-03T07:58:30;5.07;;;3.42;;
38567;SDS011;24338;48.280;10.970;2023-04-03T08:01:44;8.52;;;4.20;;
38567;SDS011;24338;48.280;10.970;2023-04-03T08:05:06;6.60;;;4.38;;
38567;SDS011;24338;48.280;10.970;2023-04-03T08:08:12;7.15;;;3.38;;
38567;SDS011;24338;48.280;10.970;2023-04-03T08:11:16;8.15;;;4.43;;
38567;SDS011;24338;48.280;10.970;2023-04-03T08:14:33;7.65;;;3.85;;
38567;SDS011;24338;48.280;10.970;2023-04-03T08:17:44;7.50;;;3.58;;
38567;SDS011;24338;48.280;10.970;2023-04-03T08:20:31;5.72;;;3.38;;
38567;SDS011;24338;48.280;10.970;2023-04-03T08:23:47;5.47;;;3.72;;
38567;SDS011;24338;48.280;10.970;2023-04-03T08:27:25;6.93;;;3.75;;
38567;SDS011;24338;48.280;10.970;2023-04-03T08:30:28;7.90;;;3.67;;
38567;SDS011;24338;48.280;10.970;2023-04-03T08:33:46;8.68;;;3.58;;
38567;SDS011;24338;48.280;10.970;2023-04-03T08:37:00;8.23;;;4.55;;
38567;SDS011;24338;48.280;10.970;2023-04-03T08:40:28;10.73;;;5.00;;
38567;SDS011;24338;48.280;10.970;2023-04-03T08:51:21;5.18;;;3.67;;
38567;SDS011;24338;48.280;10.970;2023-04-03T08:54:28;5.57;;;3.80;;
38567;SDS011;24338;48.280;10.970;2023-04-03T08:58:27;6.72;;;3.65;;
38567;SDS011;24338;48.280;10.970;2023-04-03T09:02:01;5.85;;;3.38;;
38567;SDS011;24338;48.280;10.970;2023-04-03T09:09:13;5.20;;;3.08;;
38567;SDS011;24338;48.280;10.970;2023-04-03T10:41:53;4.57;;;3.20;;
38567;SDS011;24338;48.280;10.970;2023-04-03T10:44:49;6.82;;;2.92;;
38567;SDS011;24338;48.280;10.970;2023-04-03T10:47:21;4.45;;;2.78;;
38567;SDS011;24338;48.280;10.970;2023-04-03T10:50:10;6.63;;;3.13;;
38567;SDS011;24338;48.280;10.970;2023-04-03T10:55:37;5.00;;;3.13;;
38567;SDS011;24338;48.280;10.970;2023-04-03T10:58:30;4.28;;;2.10;;
38567;SDS011;24338;48.280;10.970;2023-04-03T11:01:35;5.68;;;2.80;;
38567;SDS011;24338;48.280;10.970;2023-04-03T11:03:59;5.30;;;3.03;;
38567;SDS011;24338;48.280;10.970;2023-04-03T11:06:36;5.90;;;3.10;;
38567;SDS011;24338;48.280;10.970;2023-04-03T11:09:41;7.07;;;2.53;;
38567;SDS011;24338;48.280;10.970;2023-04-03T11:12:06;5.15;;;3.38;;
38567;SDS011;24338;48.280;10.970;2023-04-03T11:14:40;6.18;;;2.90;;
38567;SDS011;24338;48.280;10.970;2023-04-03T11:17:15;4.20;;;2.75;;
38567;SDS011;24338;48.280;10.970;2023-04-03T11:25:36;5.38;;;2.53;;
38567;SDS011;24338;48.280;10.970;2023-04-03T11:27:45;4.32;;;2.30;;
38567;SDS011;24338;48.280;10.970;2023-04-03T11:33:09;5.88;;;2.90;;
38567;SDS011;24338;48.280;10.970;2023-04-03T11:36:02;4.63;;;2.17;;
38567;SDS011;24338;48.280;10.970;2023-04-03T11:38:59;6.10;;;2.50;;
38567;SDS011;24338;48.280;10.970;2023-04-03T11:43:59;5.75;;;2.55;;
38567;SDS011;24338;48.280;10.970;2023-04-03T11:52:10;5.07;;;2.92;;
38567;SDS011;24338;48.280;10.970;2023-04-03T11:57:41;4.78;;;3.10;;
38567;SDS011;24338;48.280;10.970;2023-04-03T12:19:13;8.00;;;2.92;;
38567;SDS011;24338;48.280;10.970;2023-04-03T12:22:18;5.65;;;2.72;;
38567;SDS011;24338;48.280;10.970;2023-04-03T12:24:48;5.65;;;3.20;;
38567;SDS011;24338;48.280;10.970;2023-04-03T12:29:55;5.43;;;2.65;;
38567;SDS011;24338;48.280;10.970;2023-04-03T12:40:36;5.10;;;2.45;;
38567;SDS011;24338;48.280;10.970;2023-04-03T12:45:41;5.70;;;1.90;;
38567;SDS011;24338;48.280;10.970;2023-04-03T12:48:29;5.05;;;2.30;;
38567;SDS011;24338;48.280;10.970;2023-04-03T12:50:59;4.70;;;2.03;;
38567;SDS011;24338;48.280;10.970;2023-04-03T12:53:32;6.00;;;2.22;;
38567;SDS011;24338;48.280;10.970;2023-04-03T12:58:50;4.95;;;2.00;;
38567;SDS011;24338;48.280;10.970;2023-04-03T16:15:37;4.13;;;0.85;;
38567;SDS011;24338;48.280;10.970;2023-04-03T16:18:06;1.75;;;0.60;;
38567;SDS011;24338;48.280;10.970;2023-04-03T16:20:34;1.95;;;0.73;;
38567;SDS011;24338;48.280;10.970;2023-04-03T16:23:02;6.60;;;1.08;;
38567;SDS011;24338;48.280;10.970;2023-04-03T16:25:29;2.30;;;0.73;;
38567;SDS011;24338;48.280;10.970;2023-04-03T16:27:57;2.92;;;1.08;;
38567;SDS011;24338;48.280;10.970;2023-04-03T16:33:45;2.13;;;0.80;;
38567;SDS011;24338;48.280;10.970;2023-04-03T16:41:37;4.25;;;0.80;;
38567;SDS011;24338;48.280;10.970;2023-04-03T16:44:26;2.28;;;0.70;;
38567;SDS011;24338;48.280;10.970;2023-04-03T16:47:12;3.13;;;0.85;;
38567;SDS011;24338;48.280;10.970;2023-04-03T16:49:40;3.97;;;1.27;;
38567;SDS011;24338;48.280;10.970;2023-04-03T16:52:07;3.03;;;1.10;;
38567;SDS011;24338;48.280;10.970;2023-04-03T16:54:34;3.00;;;0.70;;
38567;SDS011;24338;48.280;10.970;2023-04-03T16:57:00;5.30;;;1.35;;
38567;SDS011;24338;48.280;10.970;2023-04-03T16:59:27;3.03;;;1.15;;
38567;SDS011;24338;48.280;10.970;2023-04-03T17:01:54;3.25;;;0.93;;
38567;SDS011;24338;48.280;10.970;2023-04-03T17:04:21;2.22;;;0.90;;
38567;SDS011;24338;48.280;10.970;2023-04-03T17:06:48;5.03;;;1.35;;
38567;SDS011;24338;48.280;10.970;2023-04-03T17:09:15;3.70;;;1.45;;
38567;SDS011;24338;48.280;10.970;2023-04-03T17:11:42;3.20;;;1.20;;
38567;SDS011;24338;48.280;10.970;2023-04-03T17:14:12;3.17;;;0.95;;
38567;SDS011;24338;48.280;10.970;2023-04-03T17:16:39;2.10;;;0.75;;
38567;SDS011;24338;48.280;10.970;2023-04-03T17:19:06;3.00;;;1.10;;
38567;SDS011;24338;48.280;10.970;2023-04-03T17:21:33;6.57;;;2.60;;
38567;SDS011;24338;48.280;10.970;2023-04-03T17:24:02;13.57;;;6.13;;
38567;SDS011;24338;48.280;10.970;2023-04-03T17:26:33;12.60;;;5.65;;
38567;SDS011;24338;48.280;10.970;2023-04-03T17:29:02;11.15;;;5.18;;
38567;SDS011;24338;48.280;10.970;2023-04-03T17:31:30;9.90;;;5.45;;
38567;SDS011;24338;48.280;10.970;2023-04-03T17:33:57;7.05;;;2.80;;
38567;SDS011;24338;48.280;10.970;2023-04-03T17:36:28;4.35;;;1.40;;
38567;SDS011;24338;48.280;10.970;2023-04-03T17:38:59;6.75;;;1.58;;
38567;SDS011;24338;48.280;10.970;2023-04-03T17:41:26;3.83;;;1.65;;
38567;SDS011;24338;48.280;10.970;2023-04-03T17:43:53;4.43;;;1.15;;
38567;SDS011;24338;48.280;10.970;2023-04-03T17:46:22;3.53;;;1.45;;
38567;SDS011;24338;48.280;10.970;2023-04-03T17:48:51;8.88;;;1.67;;
38567;SDS011;24338;48.280;10.970;2023-04-03T17:51:20;3.03;;;1.30;;
38567;SDS011;24338;48.280;10.970;2023-04-03T17:53:48;3.42;;;1.15;;
38567;SDS011;24338;48.280;10.970;2023-04-03T17:56:16;4.15;;;1.75;;
38567;SDS011;24338;48.280;10.970;2023-04-03T17:58:44;4.22;;;1.58;;
38567;SDS011;24338;48.280;10.970;2023-04-03T18:03:40;4.80;;;2.22;;
38567;SDS011;24338;48.280;10.970;2023-04-03T18:06:09;4.97;;;2.25;;
38567;SDS011;24338;48.280;10.970;2023-04-03T18:08:40;4.50;;;1.52;;
38567;SDS011;24338;48.280;10.970;2023-04-03T18:11:10;7.95;;;1.63;;
38567;SDS011;24338;48.280;10.970;2023-04-03T18:13:38;3.08;;;1.30;;
38567;SDS011;24338;48.280;10.970;2023-04-03T18:16:05;6.20;;;2.47;;
38567;SDS011;24338;48.280;10.970;2023-04-03T18:18:33;4.82;;;2.05;;
38567;SDS011;24338;48.280;10.970;2023-04-03T18:21:00;4.18;;;1.20;;
38567;SDS011;24338;48.280;10.970;2023-04-03T18:23:28;3.78;;;1.20;;
38567;SDS011;24338;48.280;10.970;2023-04-03T18:25:57;6.03;;;2.38;;
38567;SDS011;24338;48.280;10.970;2023-04-03T18:28:26;7.38;;;2.80;;
38567;SDS011;24338;48.280;10.970;2023-04-03T18:30:54;8.15;;;2.63;;
38567;SDS011;24338;48.280;10.970;2023-04-03T18:36:34;2.50;;;1.33;;
38567;SDS011;24338;48.280;10.970;2023-04-03T18:39:01;2.10;;;0.90;;
38567;SDS011;24338;48.280;10.970;2023-04-03T18:41:30;2.33;;;1.15;;
38567;SDS011;24338;48.280;10.970;2023-04-03T18:43:59;2.38;;;1.15;;
38567;SDS011;24338;48.280;10.970;2023-04-03T18:46:28;3.75;;;1.15;;
38567;SDS011;24338;48.280;10.970;2023-04-03T18:48:56;5.25;;;2.10;;
38567;SDS011;24338;48.280;10.970;2023-04-03T18:51:23;5.63;;;1.67;;
38567;SDS011;24338;48.280;10.970;2023-04-03T18:53:51;2.40;;;1.10;;
38567;SDS011;24338;48.280;10.970;2023-04-03T18:56:18;5.63;;;1.40;;
38567;SDS011;24338;48.280;10.970;2023-04-03T18:59:11;2.58;;;0.80;;
38567;SDS011;24338;48.280;10.970;2023-04-03T19:01:42;4.57;;;1.45;;
38567;SDS011;24338;48.280;10.970;2023-04-03T19:04:11;1.40;;;0.70;;
38567;SDS011;24338;48.280;10.970;2023-04-03T19:06:39;2.42;;;1.00;;
38567;SDS011;24338;48.280;10.970;2023-04-03T19:09:06;3.80;;;1.42;;
38567;SDS011;24338;48.280;10.970;2023-04-03T19:11:33;6.07;;;2.00;;
38567;SDS011;24338;48.280;10.970;2023-04-03T19:14:01;3.35;;;1.60;;
38567;SDS011;24338;48.280;10.970;2023-04-03T19:16:42;5.82;;;1.55;;
38567;SDS011;24338;48.280;10.970;2023-04-03T19:19:10;4.13;;;1.42;;
38567;SDS011;24338;48.280;10.970;2023-04-03T19:21:37;4.00;;;1.92;;
38567;SDS011;24338;48.280;10.970;2023-04-03T19:24:10;4.22;;;1.55;;
38567;SDS011;24338;48.280;10.970;2023-04-03T19:26:39;5.57;;;1.42;;
38567;SDS011;24338;48.280;10.970;2023-04-03T19:29:06;7.43;;;1.17;;
38567;SDS011;24338;48.280;10.970;2023-04-03T19:31:34;4.22;;;1.27;;
38567;SDS011;24338;48.280;10.970;2023-04-03T19:34:02;3.78;;;1.23;;
38567;SDS011;24338;48.280;10.970;2023-04-03T19:36:33;4.15;;;2.15;;
38567;SDS011;24338;48.280;10.970;2023-04-03T19:39:01;5.20;;;1.10;;
38567;SDS011;24338;48.280;10.970;2023-04-03T19:41:29;4.32;;;1.38;;
38567;SDS011;24338;48.280;10.970;2023-04-03T19:43:56;4.03;;;2.00;;
38567;SDS011;24338;48.280;10.970;2023-04-03T19:46:24;4.80;;;2.10;;
38567;SDS011;24338;48.280;10.970;2023-04-03T19:48:53;4.18;;;1.60;;
38567;SDS011;24338;48.280;10.970;2023-04-03T19:51:20;4.05;;;1.00;;
38567;SDS011;24338;48.280;10.970;2023-04-03T19:53:47;4.93;;;1.23;;
38567;SDS011;24338;48.280;10.970;2023-04-03T19:56:14;3.58;;;1.48;;
38567;SDS011;24338;48.280;10.970;2023-04-03T19:58:45;3.38;;;1.00;;
38567;SDS011;24338;48.280;10.970;2023-04-03T20:01:20;4.97;;;1.45;;
38567;SDS011;24338;48.280;10.970;2023-04-03T20:03:52;2.53;;;1.00;;
38567;SDS011;24338;48.280;10.970;2023-04-03T20:06:19;5.70;;;1.98;;
38567;SDS011;24338;48.280;10.970;2023-04-03T20:08:46;3.35;;;1.15;;
38567;SDS011;24338;48.280;10.970;2023-04-03T20:11:17;2.67;;;1.27;;
38567;SDS011;24338;48.280;10.970;2023-04-03T20:14:21;3.83;;;1.25;;
38567;SDS011;24338;48.280;10.970;2023-04-03T20:16:52;3.40;;;1.55;;
38567;SDS011;24338;48.280;10.970;2023-04-03T20:19:19;4.47;;;1.58;;
38567;SDS011;24338;48.280;10.970;2023-04-03T20:21:46;4.72;;;1.30;;
38567;SDS011;24338;48.280;10.970;2023-04-03T20:24:14;3.17;;;1.10;;
38567;SDS011;24338;48.280;10.970;2023-04-03T20:26:42;3.45;;;1.27;;
38567;SDS011;24338;48.280;10.970;2023-04-03T20:29:12;3.75;;;2.08;;
38567;SDS011;24338;48.280;10.970;2023-04-03T20:31:41;4.10;;;1.88;;
38567;SDS011;24338;48.280;10.970;2023-04-03T20:34:10;4.32;;;2.08;;
38567;SDS011;24338;48.280;10.970;2023-04-03T20:42:05;4.07;;;1.23;;
38567;SDS011;24338;48.280;10.970;2023-04-03T20:57:18;4.60;;;1.98;;
38567;SDS011;24338;48.280;10.970;2023-04-03T20:59:56;3.40;;;1.15;;
38567;SDS011;24338;48.280;10.970;2023-04-03T21:02:37;3.47;;;1.30;;
38567;SDS011;24338;48.280;10.970;2023-04-03T21:21:27;3.88;;;1.27;;
38567;SDS011;24338;48.280;10.970;2023-04-03T21:23:56;3.22;;;1.52;;
38567;SDS011;24338;48.280;10.970;2023-04-03T21:28:55;3.85;;;1.30;;
38567;SDS011;24338;48.280;10.970;2023-04-03T21:31:22;4.55;;;1.80;;
38567;SDS011;24338;48.280;10.970;2023-04-03T21:33:52;5.53;;;1.65;;
38567;SDS011;24338;48.280;10.970;2023-04-03T21:36:25;3.22;;;1.35;;
38567;SDS011;24338;48.280;10.970;2023-04-03T21:51:17;2.63;;;1.30;;
38567;SDS011;24338;48.280;10.970;2023-04-03T21:53:43;4.53;;;2.03;;
38567;SDS011;24338;48.280;10.970;2023-04-03T21:56:11;5.28;;;1.48;;
38567;SDS011;24338;48.280;10.970;2023-04-03T21:58:39;9.27;;;1.67;;
38567;SDS011;24338;48.280;10.970;2023-04-03T22:08:56;2.15;;;0.98;;
38567;SDS011;24338;48.280;10.970;2023-04-03T22:20:43;3.83;;;1.40;;
38567;SDS011;24338;48.280;10.970;2023-04-03T22:32:22;4.30;;;1.58;;